Estación Meteorológica Peña el Pijo (Robertgarden) [ 11/30/23 13:35:07 CET ]

Fecha Hora Presion(HPa) Temp (°C) Humedad % Rocio (°C) Viento ( m/s) Direccion Lluvia 1Hora(mm) Lluvia 24H(mm) LLuvia Total(mm)
2013-Dec-22 01:01:15 1020.600 -0.1 91 -1.4         231.54
2013-Dec-22 02:03:21 1020.200 0.7 92 -0.5         231.54
2013-Dec-22 03:01:13 1020.100 0.8 92 -0.4         231.54
2013-Dec-22 04:01:14 1020.200 0.8 92 -0.4         231.54
2013-Dec-22 05:01:13 1019.700 0.4 92 -0.8         231.54
2013-Dec-22 06:01:13 1019.500 0.1 92 -1.0         231.54
2013-Dec-22 07:01:15 1019.600 -0.2 92 -1.3         231.54
2013-Dec-22 08:01:12 1020.000 -0.5 92 -1.6         231.54
2013-Dec-22 09:01:18 1020.100 -0.4 93 -1.4         231.54
2013-Dec-22 10:01:13 1020.600 3.3 95 2.5         231.54
2013-Dec-22 11:01:16 1020.400 6.6 90 5.1         231.54
2013-Dec-22 12:01:21 1019.800 10.8 68 5.1         231.54
2013-Dec-22 13:01:14 1019.100 12.6 60 5.0         231.54
2013-Dec-22 14:01:14 1018.300 12.6 54 3.5         231.54
2013-Dec-22 15:01:14 1017.800 13.1 52 3.4         231.54
2013-Dec-22 16:01:15 1017.700 12.3 53 3.0         231.54
2013-Dec-22 17:01:12 1017.900 10.4 57 2.2         231.54
2013-Dec-22 18:01:13 1018.400 8.5 63 1.8         231.54
2013-Dec-22 19:01:14 1018.900 5.5 71 0.7         231.54
2013-Dec-22 20:01:13 1019.000 2.9 78 -0.6         231.54
2013-Dec-22 21:01:10 1019.300 2.4 82 -0.4         231.54
2013-Dec-22 22:01:16 1019.200 2.0 85 -0.3         231.54
2013-Dec-22 23:01:12 1018.900 1.3 86 -0.8         231.54

Temperatura Máxima:13°    Temperatura Mínima:
Presión Máxima:1020.600 Hpa    Presión Mínima:1017.700 Hpa


Volver